createdAt,value
2022-10-02T00:01:48.164Z,4.43
2022-10-02T00:04:15.610Z,2.67
2022-10-02T00:06:42.836Z,3.20
2022-10-02T00:09:10.132Z,2.50
2022-10-02T00:11:37.315Z,2.88
2022-10-02T00:14:04.567Z,3.10
2022-10-02T00:16:31.980Z,2.53
2022-10-02T00:18:59.471Z,2.63
2022-10-02T00:21:26.644Z,2.60
2022-10-02T00:23:53.905Z,3.50
2022-10-02T00:26:21.063Z,2.90
2022-10-02T00:28:48.869Z,4.53
2022-10-02T00:31:16.168Z,3.45
2022-10-02T00:33:43.438Z,2.40
2022-10-02T00:36:10.659Z,2.53
2022-10-02T00:38:37.934Z,2.95
2022-10-02T00:41:05.108Z,3.00
2022-10-02T00:43:32.374Z,2.75
2022-10-02T00:45:59.628Z,2.45
2022-10-02T00:48:26.890Z,3.13
2022-10-02T00:50:54.162Z,2.85
2022-10-02T00:53:21.550Z,3.92
2022-10-02T00:55:48.726Z,2.33
2022-10-02T00:58:15.943Z,3.13
2022-10-02T01:00:43.789Z,2.35
2022-10-02T01:03:11.056Z,2.90
2022-10-02T01:05:38.273Z,2.92
2022-10-02T01:08:06.008Z,2.53
2022-10-02T01:10:33.232Z,2.38
2022-10-02T01:13:00.459Z,3.78
2022-10-02T01:15:27.822Z,3.13
2022-10-02T01:17:55.036Z,3.05
2022-10-02T01:20:22.279Z,3.00
2022-10-02T01:22:49.503Z,2.28
2022-10-02T01:25:16.736Z,2.78
2022-10-02T01:27:43.938Z,2.80
2022-10-02T01:30:11.558Z,2.22
2022-10-02T01:32:38.741Z,3.20
2022-10-02T01:35:05.946Z,2.22
2022-10-02T01:37:33.198Z,3.38
2022-10-02T01:40:00.463Z,3.22
2022-10-02T01:42:27.638Z,2.78
2022-10-02T01:44:54.924Z,2.75
2022-10-02T01:47:22.197Z,2.40
2022-10-02T01:49:49.419Z,3.65
2022-10-02T01:52:16.628Z,2.45
2022-10-02T01:54:43.886Z,4.32
2022-10-02T01:57:11.211Z,2.63
2022-10-02T01:59:38.480Z,3.13
2022-10-02T02:02:05.816Z,3.42
2022-10-02T02:04:33.091Z,2.30
2022-10-02T02:07:00.333Z,2.67
2022-10-02T02:09:27.536Z,2.10
2022-10-02T02:11:54.711Z,3.60
2022-10-02T02:14:21.932Z,2.90
2022-10-02T02:16:49.259Z,2.88
2022-10-02T02:19:16.572Z,2.40
2022-10-02T02:21:43.777Z,2.60
2022-10-02T02:24:11.074Z,2.15
2022-10-02T02:26:38.569Z,4.00
2022-10-02T02:29:06.129Z,2.10
2022-10-02T02:31:33.391Z,3.25
2022-10-02T02:34:01.219Z,3.42
2022-10-02T02:36:28.518Z,2.70
2022-10-02T02:38:55.795Z,2.45
2022-10-02T02:41:22.965Z,2.88
2022-10-02T02:43:50.302Z,2.05
2022-10-02T02:46:17.508Z,2.88
2022-10-02T02:48:44.728Z,2.33
2022-10-02T02:51:12.007Z,2.10
2022-10-02T02:53:39.265Z,1.90
2022-10-02T02:56:06.478Z,2.40
2022-10-02T02:58:33.698Z,1.95
2022-10-02T03:01:00.976Z,2.30
2022-10-02T03:03:28.235Z,1.85
2022-10-02T03:05:55.566Z,2.88
2022-10-02T03:08:23.020Z,2.50
2022-10-02T03:10:50.235Z,3.08
2022-10-02T03:13:17.506Z,3.08
2022-10-02T03:15:44.888Z,2.63
2022-10-02T03:18:13.007Z,2.22
2022-10-02T03:20:41.620Z,2.28
2022-10-02T03:23:10.002Z,1.95
2022-10-02T03:25:37.620Z,1.90
2022-10-02T03:28:04.961Z,2.13
2022-10-02T03:30:32.256Z,2.70
2022-10-02T03:33:01.136Z,2.17
2022-10-02T03:35:28.441Z,2.35
2022-10-02T03:37:55.627Z,2.40
2022-10-02T03:40:23.462Z,2.53
2022-10-02T03:42:51.918Z,1.63
2022-10-02T03:45:38.998Z,2.13
2022-10-02T03:48:06.544Z,1.90
2022-10-02T03:50:36.356Z,2.20
2022-10-02T03:53:03.890Z,2.42
2022-10-02T03:55:32.619Z,1.65
2022-10-02T03:57:59.945Z,2.10
2022-10-02T04:00:27.102Z,2.63
2022-10-02T04:02:54.335Z,2.45
2022-10-02T04:05:21.608Z,1.65
2022-10-02T04:07:52.630Z,1.67
2022-10-02T04:10:20.220Z,2.03
2022-10-02T04:12:47.465Z,1.63
2022-10-02T04:15:14.719Z,2.55
2022-10-02T04:17:44.365Z,3.10
2022-10-02T04:20:11.759Z,2.38
2022-10-02T04:22:39.097Z,1.98
2022-10-02T04:25:06.360Z,2.30
2022-10-02T04:27:33.587Z,2.58
2022-10-02T04:30:00.842Z,1.80
2022-10-02T04:32:28.074Z,1.58
2022-10-02T04:34:55.362Z,1.80
2022-10-02T04:37:22.531Z,1.98
2022-10-02T04:39:49.778Z,2.13
2022-10-02T04:42:16.961Z,1.85
2022-10-02T04:44:44.406Z,1.95
2022-10-02T04:47:11.690Z,2.05
2022-10-02T04:49:38.941Z,3.10
2022-10-02T04:52:06.145Z,2.03
2022-10-02T04:54:34.110Z,1.92
2022-10-02T04:57:01.365Z,1.92
2022-10-02T04:59:28.624Z,1.73
2022-10-02T05:01:55.890Z,1.83
2022-10-02T05:04:23.236Z,1.85
2022-10-02T05:06:50.413Z,3.70
2022-10-02T05:09:17.613Z,2.10
2022-10-02T05:11:44.817Z,3.00
2022-10-02T05:14:12.223Z,2.60
2022-10-02T05:16:39.947Z,2.47
2022-10-02T05:19:07.534Z,2.47
2022-10-02T05:21:34.689Z,2.13
2022-10-02T05:24:01.929Z,2.13
2022-10-02T05:26:29.156Z,2.60
2022-10-02T05:28:56.382Z,1.73
2022-10-02T05:31:23.647Z,1.92
2022-10-02T05:33:51.275Z,1.90
2022-10-02T05:36:18.472Z,2.97
2022-10-02T05:38:45.738Z,2.20
2022-10-02T05:41:12.958Z,1.90
2022-10-02T05:43:40.458Z,1.95
2022-10-02T05:46:07.657Z,1.98
2022-10-02T05:48:34.940Z,2.20
2022-10-02T05:51:02.192Z,3.13
2022-10-02T05:53:29.411Z,2.00
2022-10-02T05:55:56.762Z,2.33
2022-10-02T05:58:24.011Z,2.25
2022-10-02T06:00:51.259Z,1.67
2022-10-02T06:03:18.530Z,2.60
2022-10-02T06:05:45.730Z,1.38
2022-10-02T06:08:13.001Z,2.10
2022-10-02T06:10:40.255Z,2.30
2022-10-02T06:13:08.630Z,2.00
2022-10-02T06:15:35.832Z,1.90
2022-10-02T06:18:03.140Z,2.55
2022-10-02T06:20:30.357Z,1.92
2022-10-02T06:22:57.597Z,2.35
2022-10-02T06:25:25.076Z,2.45
2022-10-02T06:27:52.873Z,2.40
2022-10-02T06:30:20.143Z,2.70
2022-10-02T06:32:48.353Z,3.33
2022-10-02T06:35:15.809Z,2.22
2022-10-02T06:37:43.074Z,3.78
2022-10-02T06:40:14.219Z,2.50
2022-10-02T06:42:41.412Z,2.30
2022-10-02T06:45:08.612Z,2.10
2022-10-02T06:47:35.851Z,2.17
2022-10-02T06:50:03.104Z,3.35
2022-10-02T06:52:34.451Z,3.08
2022-10-02T06:55:04.507Z,1.83
2022-10-02T06:57:33.227Z,2.53
2022-10-02T07:00:00.468Z,2.05
2022-10-02T07:02:27.764Z,2.60
2022-10-02T07:04:55.457Z,2.65
2022-10-02T07:07:22.965Z,2.55
2022-10-02T07:09:50.291Z,2.20
2022-10-02T07:12:17.547Z,2.85
2022-10-02T07:14:44.773Z,2.30
2022-10-02T07:17:12.122Z,3.45
2022-10-02T07:19:39.391Z,4.97
2022-10-02T07:22:25.848Z,2.95
2022-10-02T07:24:54.304Z,2.53
2022-10-02T07:27:21.524Z,3.13
2022-10-02T07:29:48.766Z,4.75
2022-10-02T07:32:16.504Z,3.53
2022-10-02T07:34:43.713Z,3.05
2022-10-02T07:37:10.976Z,2.78
2022-10-02T07:39:38.212Z,2.78
2022-10-02T07:42:05.388Z,2.90
2022-10-02T07:44:32.782Z,3.80
2022-10-02T07:46:59.976Z,2.70
2022-10-02T07:49:27.247Z,2.92
2022-10-02T07:51:55.016Z,3.60
2022-10-02T07:54:22.364Z,3.25
2022-10-02T07:56:49.616Z,3.05
2022-10-02T07:59:16.879Z,2.67
2022-10-02T08:01:44.245Z,2.92
2022-10-02T08:04:11.643Z,2.58
2022-10-02T08:06:39.156Z,2.67
2022-10-02T08:09:06.567Z,3.60
2022-10-02T08:11:33.799Z,2.88
2022-10-02T08:14:01.011Z,3.70
2022-10-02T08:16:28.706Z,3.22
2022-10-02T08:18:56.003Z,2.95
2022-10-02T08:21:23.178Z,3.08
2022-10-02T08:23:50.625Z,2.30
2022-10-02T08:26:17.869Z,3.05
2022-10-02T08:28:45.112Z,2.65
2022-10-02T08:31:12.425Z,2.75
2022-10-02T08:33:39.729Z,4.05
2022-10-02T08:36:08.008Z,4.60
2022-10-02T08:38:35.391Z,2.67
2022-10-02T08:41:04.324Z,3.13
2022-10-02T08:43:31.803Z,3.15
2022-10-02T08:46:02.559Z,2.92
2022-10-02T08:48:30.144Z,2.47
2022-10-02T08:50:57.345Z,3.33
2022-10-02T08:53:24.605Z,3.35
2022-10-02T08:55:51.790Z,3.30
2022-10-02T08:58:19.023Z,2.90
2022-10-02T09:00:46.306Z,3.50
2022-10-02T09:03:13.622Z,4.00
2022-10-02T09:05:40.874Z,3.25
2022-10-02T09:08:09.040Z,3.10
2022-10-02T09:10:36.244Z,3.00
2022-10-02T09:13:03.842Z,3.92
2022-10-02T09:15:31.014Z,2.88
2022-10-02T09:17:58.304Z,2.25
2022-10-02T09:20:25.508Z,4.40
2022-10-02T09:22:52.795Z,2.70
2022-10-02T09:25:20.101Z,3.15
2022-10-02T09:27:47.645Z,3.63
2022-10-02T09:30:14.994Z,3.10
2022-10-02T09:32:43.240Z,3.42
2022-10-02T09:35:10.469Z,3.30
2022-10-02T09:37:37.702Z,4.20
2022-10-02T09:40:05.805Z,3.70
2022-10-02T09:42:33.354Z,2.92
2022-10-02T09:45:01.932Z,4.40
2022-10-02T09:47:29.368Z,3.60
2022-10-02T09:49:57.614Z,3.63
2022-10-02T09:52:24.994Z,4.78
2022-10-02T09:54:52.216Z,2.47
2022-10-02T09:57:19.536Z,3.13
2022-10-02T09:59:46.858Z,3.75
2022-10-02T10:02:14.199Z,3.33
2022-10-02T10:05:04.999Z,3.22
2022-10-02T10:07:34.040Z,2.95
2022-10-02T10:10:01.279Z,2.97
2022-10-02T10:12:28.466Z,3.10
2022-10-02T10:14:55.629Z,2.78
2022-10-02T10:17:22.843Z,3.17
2022-10-02T10:19:50.024Z,2.85
2022-10-02T10:22:17.422Z,3.60
2022-10-02T10:24:45.089Z,2.33
2022-10-02T10:27:13.387Z,3.83
2022-10-02T10:29:40.641Z,2.38
2022-10-02T10:32:07.954Z,2.28
2022-10-02T10:34:35.191Z,3.15
2022-10-02T10:37:21.434Z,2.45
2022-10-02T10:39:48.673Z,2.03
2022-10-02T10:42:15.867Z,2.75
2022-10-02T10:44:43.171Z,3.00
2022-10-02T10:47:18.303Z,2.40
2022-10-02T10:49:45.611Z,2.08
2022-10-02T10:52:16.180Z,2.50
2022-10-02T10:54:44.840Z,2.35
2022-10-02T10:57:12.629Z,2.08
2022-10-02T10:59:42.497Z,2.33
2022-10-02T11:02:13.921Z,2.85
2022-10-02T11:04:41.394Z,2.97
2022-10-02T11:07:08.658Z,2.22
2022-10-02T11:09:36.665Z,2.50
2022-10-02T11:12:08.817Z,2.25
2022-10-02T11:14:36.916Z,2.38
2022-10-02T11:17:04.197Z,3.33
2022-10-02T11:19:31.455Z,3.05
2022-10-02T11:21:59.300Z,2.65
2022-10-02T11:24:26.534Z,2.20
2022-10-02T11:26:53.673Z,3.13
2022-10-02T11:29:20.976Z,4.13
2022-10-02T11:31:48.211Z,1.48
2022-10-02T11:34:16.761Z,3.17
2022-10-02T11:36:43.955Z,2.75
2022-10-02T11:39:11.394Z,2.10
2022-10-02T11:41:39.225Z,1.95
2022-10-02T11:44:06.845Z,2.28
2022-10-02T11:46:36.515Z,2.85
2022-10-02T11:49:03.759Z,2.20
2022-10-02T11:51:30.973Z,2.08
2022-10-02T11:53:58.264Z,2.08
2022-10-02T11:56:25.431Z,2.13
2022-10-02T11:58:52.663Z,2.10
2022-10-02T12:01:19.923Z,2.50
2022-10-02T12:03:47.246Z,3.42
2022-10-02T12:06:15.409Z,2.00
2022-10-02T12:08:44.114Z,2.00
2022-10-02T12:11:11.274Z,2.50
2022-10-02T12:13:38.498Z,2.00
2022-10-02T12:16:05.889Z,2.55
2022-10-02T12:18:33.181Z,2.95
2022-10-02T12:21:19.376Z,2.40
2022-10-02T12:24:05.447Z,2.10
2022-10-02T12:26:51.361Z,2.35
2022-10-02T12:29:19.464Z,2.88
2022-10-02T12:31:51.492Z,2.00
2022-10-02T12:34:19.967Z,2.42
2022-10-02T12:36:47.174Z,2.38
2022-10-02T12:39:16.782Z,2.00
2022-10-02T12:41:47.326Z,1.88
2022-10-02T12:44:17.182Z,2.42
2022-10-02T12:46:46.050Z,1.80
2022-10-02T12:49:14.337Z,2.83
2022-10-02T12:51:41.767Z,1.73
2022-10-02T12:54:09.236Z,2.20
2022-10-02T12:56:36.506Z,2.30
2022-10-02T12:59:04.148Z,1.90
2022-10-02T13:01:31.813Z,1.75
2022-10-02T13:03:59.064Z,4.72
2022-10-02T13:06:26.477Z,2.38
2022-10-02T13:08:53.653Z,2.20
2022-10-02T13:11:21.037Z,2.20
2022-10-02T13:13:48.853Z,1.88
2022-10-02T13:16:16.376Z,1.92
2022-10-02T13:18:43.844Z,1.52
2022-10-02T13:21:11.836Z,2.22
2022-10-02T13:23:41.883Z,1.98
2022-10-02T13:26:12.906Z,2.08
2022-10-02T13:28:40.220Z,2.05
2022-10-02T13:31:07.377Z,2.03
2022-10-02T13:33:34.975Z,1.80
2022-10-02T13:36:02.174Z,2.20
2022-10-02T13:38:29.678Z,2.03
2022-10-02T13:40:58.126Z,2.28
2022-10-02T13:43:25.325Z,2.20
2022-10-02T13:45:52.622Z,1.83
2022-10-02T13:48:19.844Z,2.13
2022-10-02T13:50:47.866Z,1.58
2022-10-02T13:53:15.146Z,1.77
2022-10-02T13:55:42.319Z,1.92
2022-10-02T13:58:09.611Z,2.60
2022-10-02T14:00:37.312Z,2.05
2022-10-02T14:03:04.560Z,2.30
2022-10-02T14:05:31.957Z,2.72
2022-10-02T14:07:59.229Z,1.40
2022-10-02T14:10:28.359Z,1.25
2022-10-02T14:12:55.572Z,3.10
2022-10-02T14:15:22.824Z,2.47
2022-10-02T14:17:51.381Z,1.90
2022-10-02T14:20:19.068Z,1.65
2022-10-02T14:22:47.000Z,2.28
2022-10-02T14:25:14.237Z,2.15
2022-10-02T14:27:41.480Z,2.00
2022-10-02T14:30:08.735Z,2.83
2022-10-02T14:32:35.970Z,2.15
2022-10-02T14:35:03.519Z,1.58
2022-10-02T14:37:30.848Z,1.90
2022-10-02T14:39:58.127Z,1.60
2022-10-02T14:42:25.922Z,2.10
2022-10-02T14:44:53.222Z,3.28
2022-10-02T14:47:21.285Z,3.75
2022-10-02T14:49:48.514Z,2.50
2022-10-02T14:52:15.760Z,2.20
2022-10-02T14:54:43.041Z,2.38
2022-10-02T14:57:10.357Z,1.90
2022-10-02T14:59:38.101Z,2.17
2022-10-02T15:02:05.408Z,3.97
2022-10-02T15:04:33.025Z,1.95
2022-10-02T15:07:00.355Z,1.88
2022-10-02T15:09:27.567Z,1.42
2022-10-02T15:11:54.759Z,1.75
2022-10-02T15:14:22.213Z,2.20
2022-10-02T15:17:08.212Z,1.80
2022-10-02T15:19:36.751Z,1.95
2022-10-02T15:22:03.942Z,1.90
2022-10-02T15:24:31.316Z,1.77
2022-10-02T15:26:58.883Z,1.85
2022-10-02T15:29:26.183Z,2.25
2022-10-02T15:31:55.640Z,2.25
2022-10-02T15:34:22.897Z,1.50
2022-10-02T15:36:50.201Z,1.70
2022-10-02T15:39:19.850Z,2.40
2022-10-02T15:41:47.189Z,1.75
2022-10-02T15:44:15.929Z,1.48
2022-10-02T15:46:43.235Z,1.80
2022-10-02T15:49:10.633Z,1.83
2022-10-02T15:51:37.931Z,1.90
2022-10-02T15:54:05.118Z,1.95
2022-10-02T15:56:32.368Z,1.85
2022-10-02T15:58:59.577Z,1.75
2022-10-02T16:01:26.739Z,2.03
2022-10-02T16:03:53.934Z,1.58
2022-10-02T16:06:21.161Z,2.20
2022-10-02T16:08:48.333Z,2.63
2022-10-02T16:11:15.806Z,6.10
2022-10-02T16:13:47.190Z,4.68
2022-10-02T16:16:14.895Z,4.10
2022-10-02T16:18:42.114Z,5.43
2022-10-02T16:21:09.378Z,4.05
2022-10-02T16:23:36.689Z,4.00
2022-10-02T16:26:03.976Z,4.13
2022-10-02T16:28:31.644Z,3.50
2022-10-02T16:30:58.939Z,2.30
2022-10-02T16:33:26.242Z,2.65
2022-10-02T16:35:53.482Z,2.13
2022-10-02T16:38:22.532Z,2.75
2022-10-02T16:40:49.781Z,1.90
2022-10-02T16:43:16.974Z,2.10
2022-10-02T16:45:44.328Z,1.98
2022-10-02T16:48:12.211Z,2.30
2022-10-02T16:50:42.334Z,2.17
2022-10-02T16:53:09.701Z,2.03
2022-10-02T16:55:37.489Z,2.03
2022-10-02T16:58:04.737Z,2.30
2022-10-02T17:00:31.956Z,2.00
2022-10-02T17:02:59.328Z,2.03
2022-10-02T17:05:27.102Z,2.00
2022-10-02T17:07:54.341Z,2.15
2022-10-02T17:10:21.651Z,2.05
2022-10-02T17:12:48.918Z,2.22
2022-10-02T17:15:16.937Z,2.90
2022-10-02T17:17:44.322Z,2.40
2022-10-02T17:20:11.521Z,1.92
2022-10-02T17:22:40.101Z,1.95
2022-10-02T17:25:07.357Z,2.42
2022-10-02T17:27:35.309Z,2.58
2022-10-02T17:30:03.878Z,3.72
2022-10-02T17:32:31.214Z,2.47
2022-10-02T17:35:00.096Z,2.65
2022-10-02T17:37:27.384Z,3.05
2022-10-02T17:39:54.908Z,2.08
2022-10-02T17:42:22.490Z,4.22
2022-10-02T17:44:49.764Z,3.17
2022-10-02T17:47:17.938Z,2.47
2022-10-02T17:49:45.093Z,3.70
2022-10-02T17:52:31.334Z,2.92
2022-10-02T17:55:17.579Z,3.00
2022-10-02T17:57:44.871Z,2.88
2022-10-02T18:00:12.115Z,3.15
2022-10-02T18:02:39.434Z,3.10
2022-10-02T18:05:06.758Z,3.83
2022-10-02T18:07:34.036Z,3.65
2022-10-02T18:10:01.217Z,3.13
2022-10-02T18:12:28.462Z,3.40
2022-10-02T18:14:55.768Z,2.85
2022-10-02T18:17:23.065Z,2.45
2022-10-02T18:19:50.460Z,2.90
2022-10-02T18:22:17.714Z,2.88
2022-10-02T18:24:44.893Z,3.72
2022-10-02T18:27:12.328Z,3.10
2022-10-02T18:29:39.583Z,3.05
2022-10-02T18:32:07.179Z,2.53
2022-10-02T18:34:35.302Z,2.78
2022-10-02T18:37:02.959Z,2.45
2022-10-02T18:39:30.275Z,3.00
2022-10-02T18:41:57.929Z,2.58
2022-10-02T18:44:25.177Z,3.30
2022-10-02T18:46:52.380Z,3.85
2022-10-02T18:49:19.573Z,3.95
2022-10-02T18:51:48.447Z,3.10
2022-10-02T18:54:16.031Z,3.45
2022-10-02T18:56:43.340Z,3.17
2022-10-02T18:59:10.584Z,3.45
2022-10-02T19:01:38.369Z,3.67
2022-10-02T19:04:06.651Z,3.55
2022-10-02T19:06:33.842Z,3.33
2022-10-02T19:09:01.107Z,3.25
2022-10-02T19:11:28.491Z,4.30
2022-10-02T19:13:55.777Z,3.75
2022-10-02T19:16:23.012Z,4.75
2022-10-02T19:18:50.425Z,3.95
2022-10-02T19:21:19.393Z,4.70
2022-10-02T19:23:46.654Z,4.30
2022-10-02T19:26:13.883Z,4.80
2022-10-02T19:28:41.093Z,4.53
2022-10-02T19:31:10.521Z,4.38
2022-10-02T19:33:41.251Z,5.45
2022-10-02T19:36:10.858Z,5.53
2022-10-02T19:38:38.437Z,5.28
2022-10-02T19:41:08.281Z,5.72
2022-10-02T19:43:35.555Z,5.25
2022-10-02T19:46:02.816Z,5.20
2022-10-02T19:48:30.238Z,5.82
2022-10-02T19:50:58.378Z,5.78
2022-10-02T19:53:26.001Z,5.07
2022-10-02T19:55:53.245Z,5.25
2022-10-02T19:58:20.511Z,5.03
2022-10-02T20:00:47.736Z,4.75
2022-10-02T20:03:15.073Z,3.78
2022-10-02T20:05:42.290Z,4.43
2022-10-02T20:08:09.561Z,4.07
2022-10-02T20:10:36.827Z,4.65
2022-10-02T20:13:04.084Z,3.67
2022-10-02T20:15:50.112Z,3.53
2022-10-02T20:18:17.417Z,3.85
2022-10-02T20:20:44.609Z,3.20
2022-10-02T20:23:11.993Z,4.28
2022-10-02T20:25:39.173Z,3.85
2022-10-02T20:28:06.486Z,3.70
2022-10-02T20:30:35.465Z,3.80
2022-10-02T20:33:02.845Z,3.90
2022-10-02T20:35:34.679Z,4.53
2022-10-02T20:38:01.955Z,4.25
2022-10-02T20:40:29.960Z,4.00
2022-10-02T20:42:58.265Z,4.55
2022-10-02T20:45:25.454Z,4.43
2022-10-02T20:47:52.762Z,4.60
2022-10-02T20:50:19.946Z,5.10
2022-10-02T20:52:49.142Z,5.47
2022-10-02T20:55:16.297Z,6.20
2022-10-02T20:58:00.067Z,5.72
2022-10-02T21:00:29.014Z,5.75
2022-10-02T21:02:56.226Z,5.43
2022-10-02T21:05:23.534Z,6.22
2022-10-02T21:07:50.763Z,5.30
2022-10-02T21:10:19.006Z,5.30
2022-10-02T21:12:46.303Z,4.88
2022-10-02T21:15:13.857Z,4.47
2022-10-02T21:17:41.930Z,4.90
2022-10-02T21:20:09.187Z,4.45
2022-10-02T21:22:36.473Z,4.43
2022-10-02T21:25:03.742Z,3.80
2022-10-02T21:27:30.992Z,4.50
2022-10-02T21:29:58.216Z,4.70
2022-10-02T21:32:25.576Z,4.82
2022-10-02T21:34:52.782Z,4.28
2022-10-02T21:37:22.593Z,7.32
2022-10-02T21:39:49.858Z,5.88
2022-10-02T21:42:17.546Z,4.97
2022-10-02T21:44:46.451Z,5.13
2022-10-02T21:47:13.625Z,5.30
2022-10-02T21:49:41.343Z,5.72
2022-10-02T21:52:08.643Z,5.03
2022-10-02T21:54:35.953Z,4.40
2022-10-02T21:57:03.167Z,6.18
2022-10-02T21:59:30.521Z,5.03
2022-10-02T22:02:08.157Z,5.20
2022-10-02T22:04:36.244Z,4.32
2022-10-02T22:07:03.464Z,4.43
2022-10-02T22:09:30.701Z,4.00
2022-10-02T22:11:58.459Z,3.97
2022-10-02T22:14:26.020Z,4.90
2022-10-02T22:16:55.159Z,4.30
2022-10-02T22:19:23.415Z,4.47
2022-10-02T22:21:50.858Z,4.85
2022-10-02T22:24:18.288Z,4.30
2022-10-02T22:26:45.539Z,4.95
2022-10-02T22:29:13.041Z,4.15
2022-10-02T22:31:40.792Z,4.38
2022-10-02T22:34:08.628Z,4.25
2022-10-02T22:36:36.481Z,4.78
2022-10-02T22:39:03.700Z,4.25
2022-10-02T22:41:30.967Z,4.68
2022-10-02T22:43:58.254Z,5.40
2022-10-02T22:46:25.735Z,3.88
2022-10-02T22:48:53.024Z,3.83
2022-10-02T22:51:20.202Z,4.10
2022-10-02T22:53:47.468Z,4.43
2022-10-02T22:56:14.642Z,4.15
2022-10-02T22:58:41.947Z,4.30
2022-10-02T23:01:09.255Z,4.15
2022-10-02T23:03:36.656Z,4.13
2022-10-02T23:06:04.087Z,4.03
2022-10-02T23:08:31.333Z,3.97
2022-10-02T23:11:01.232Z,4.95
2022-10-02T23:13:28.664Z,3.97
2022-10-02T23:15:56.000Z,4.10
2022-10-02T23:18:23.245Z,4.05
2022-10-02T23:20:50.563Z,4.78
2022-10-02T23:23:18.798Z,4.88
2022-10-02T23:25:46.214Z,3.65
2022-10-02T23:28:13.553Z,4.10
2022-10-02T23:30:40.936Z,3.88
2022-10-02T23:33:08.618Z,3.42
2022-10-02T23:35:35.983Z,4.43
2022-10-02T23:38:03.214Z,4.25
2022-10-02T23:40:49.638Z,4.25
2022-10-02T23:43:16.873Z,3.45
2022-10-02T23:45:44.053Z,3.65
2022-10-02T23:48:11.867Z,4.05
2022-10-02T23:50:39.142Z,4.05
2022-10-02T23:53:06.577Z,3.70
2022-10-02T23:55:33.883Z,3.92
2022-10-02T23:58:01.133Z,4.38
